sensor_id;sensor_type;location;lat;lon;timestamp;pressure;altitude;pressure_sealevel;temperature;humidity
21760;BME280;11041;50.854;20.580;2022-07-15T00:02:10;98359.63;;;16.74;98.82
21760;BME280;11041;50.854;20.580;2022-07-15T00:04:38;98367.75;;;16.82;98.82
21760;BME280;11041;50.854;20.580;2022-07-15T00:07:05;98359.00;;;16.80;98.67
21760;BME280;11041;50.854;20.580;2022-07-15T00:09:32;98367.09;;;16.89;98.59
21760;BME280;11041;50.854;20.580;2022-07-15T00:12:18;98357.16;;;16.88;98.22
21760;BME280;11041;50.854;20.580;2022-07-15T00:14:44;98362.50;;;16.97;97.65
21760;BME280;11041;50.854;20.580;2022-07-15T00:17:11;98370.06;;;17.00;97.52
21760;BME280;11041;50.854;20.580;2022-07-15T00:19:37;98354.53;;;16.95;96.88
21760;BME280;11041;50.854;20.580;2022-07-15T00:22:04;98384.03;;;17.03;96.92
21760;BME280;11041;50.854;20.580;2022-07-15T00:24:31;98370.38;;;16.95;96.82
21760;BME280;11041;50.854;20.580;2022-07-15T00:26:58;98362.06;;;16.95;96.59
21760;BME280;11041;50.854;20.580;2022-07-15T00:29:24;98362.63;;;17.04;96.24
21760;BME280;11041;50.854;20.580;2022-07-15T00:31:53;98370.38;;;16.95;96.20
21760;BME280;11041;50.854;20.580;2022-07-15T00:34:20;98368.78;;;16.94;96.30
21760;BME280;11041;50.854;20.580;2022-07-15T00:36:47;98363.59;;;16.92;96.46
21760;BME280;11041;50.854;20.580;2022-07-15T00:39:15;98360.75;;;16.89;96.96
21760;BME280;11041;50.854;20.580;2022-07-15T00:41:43;98364.81;;;16.95;96.94
21760;BME280;11041;50.854;20.580;2022-07-15T00:44:11;98367.00;;;17.05;97.16
21760;BME280;11041;50.854;20.580;2022-07-15T00:46:38;98341.88;;;16.98;97.04
21760;BME280;11041;50.854;20.580;2022-07-15T00:49:08;98346.72;;;17.01;96.74
21760;BME280;11041;50.854;20.580;2022-07-15T00:51:43;98362.00;;;17.14;97.01
21760;BME280;11041;50.854;20.580;2022-07-15T00:54:13;98350.34;;;17.05;96.49
21760;BME280;11041;50.854;20.580;2022-07-15T00:56:48;98362.75;;;17.11;96.16
21760;BME280;11041;50.854;20.580;2022-07-15T00:59:17;98367.00;;;17.05;96.28
21760;BME280;11041;50.854;20.580;2022-07-15T01:01:45;98357.38;;;16.99;96.45
21760;BME280;11041;50.854;20.580;2022-07-15T01:04:13;98350.38;;;16.86;96.95
21760;BME280;11041;50.854;20.580;2022-07-15T01:06:41;98379.50;;;16.95;96.90
21760;BME280;11041;50.854;20.580;2022-07-15T01:09:09;98359.94;;;16.88;97.36
21760;BME280;11041;50.854;20.580;2022-07-15T01:11:36;98349.56;;;16.85;97.16
21760;BME280;11041;50.854;20.580;2022-07-15T01:14:04;98354.38;;;16.88;96.97
21760;BME280;11041;50.854;20.580;2022-07-15T01:16:31;98366.81;;;16.94;97.13
21760;BME280;11041;50.854;20.580;2022-07-15T01:18:58;98348.78;;;16.85;97.04
21760;BME280;11041;50.854;20.580;2022-07-15T01:21:24;98363.69;;;16.96;97.24
21760;BME280;11041;50.854;20.580;2022-07-15T01:23:50;98351.34;;;16.93;97.30
21760;BME280;11041;50.854;20.580;2022-07-15T01:26:17;98347.28;;;16.91;97.56
21760;BME280;11041;50.854;20.580;2022-07-15T01:28:44;98366.44;;;16.96;97.73
21760;BME280;11041;50.854;20.580;2022-07-15T01:31:10;98359.28;;;16.95;97.31
21760;BME280;11041;50.854;20.580;2022-07-15T01:33:37;98341.69;;;16.87;97.21
21760;BME280;11041;50.854;20.580;2022-07-15T01:36:06;98360.91;;;16.96;97.30
21760;BME280;11041;50.854;20.580;2022-07-15T01:38:33;98347.69;;;16.89;97.29
21760;BME280;11041;50.854;20.580;2022-07-15T01:40:59;98347.38;;;16.94;97.72
21760;BME280;11041;50.854;20.580;2022-07-15T01:43:26;98340.66;;;16.95;97.48
21760;BME280;11041;50.854;20.580;2022-07-15T01:45:52;98361.09;;;17.07;97.60
21760;BME280;11041;50.854;20.580;2022-07-15T01:48:18;98366.63;;;17.07;97.20
21760;BME280;11041;50.854;20.580;2022-07-15T01:51:04;98370.22;;;17.07;97.09
21760;BME280;11041;50.854;20.580;2022-07-15T01:53:31;98357.38;;;16.99;96.86
21760;BME280;11041;50.854;20.580;2022-07-15T01:55:57;98356.94;;;16.97;96.77
21760;BME280;11041;50.854;20.580;2022-07-15T01:58:24;98372.84;;;17.00;97.04
21760;BME280;11041;50.854;20.580;2022-07-15T02:00:50;98356.94;;;16.97;96.88
21760;BME280;11041;50.854;20.580;2022-07-15T02:03:17;98346.94;;;16.92;96.69
21760;BME280;11041;50.854;20.580;2022-07-15T02:05:43;98353.72;;;16.95;96.75
21760;BME280;11041;50.854;20.580;2022-07-15T02:08:10;98357.88;;;17.04;96.79
21760;BME280;11041;50.854;20.580;2022-07-15T02:10:36;98349.06;;;16.99;96.62
21760;BME280;11041;50.854;20.580;2022-07-15T02:13:08;98359.28;;;16.95;96.23
21760;BME280;11041;50.854;20.580;2022-07-15T02:15:36;98339.13;;;16.78;96.33
21760;BME280;11041;50.854;20.580;2022-07-15T02:18:04;98368.34;;;16.92;97.05
21760;BME280;11041;50.854;20.580;2022-07-15T02:20:32;98380.19;;;16.89;97.19
21760;BME280;11041;50.854;20.580;2022-07-15T02:22:59;98363.75;;;16.80;97.01
21760;BME280;11041;50.854;20.580;2022-07-15T02:25:31;98380.91;;;16.86;96.89
21760;BME280;11041;50.854;20.580;2022-07-15T02:28:02;98384.41;;;16.82;97.18
21760;BME280;11041;50.854;20.580;2022-07-15T02:30:34;98383.72;;;16.70;97.28
21760;BME280;11041;50.854;20.580;2022-07-15T02:33:02;98380.88;;;16.66;97.45
21760;BME280;11041;50.854;20.580;2022-07-15T02:35:29;98364.66;;;16.49;97.35
21760;BME280;11041;50.854;20.580;2022-07-15T02:37:58;98360.22;;;16.44;97.62
21760;BME280;11041;50.854;20.580;2022-07-15T02:40:27;98355.41;;;16.41;97.52
21760;BME280;11041;50.854;20.580;2022-07-15T02:42:59;98356.47;;;16.36;97.41
21760;BME280;11041;50.854;20.580;2022-07-15T02:45:28;98378.03;;;16.43;96.79
21760;BME280;11041;50.854;20.580;2022-07-15T02:47:55;98377.03;;;16.35;96.54
21760;BME280;11041;50.854;20.580;2022-07-15T02:50:23;98387.78;;;16.37;96.79
21760;BME280;11041;50.854;20.580;2022-07-15T02:52:49;98397.47;;;16.27;96.62
21760;BME280;11041;50.854;20.580;2022-07-15T02:55:17;98401.84;;;16.28;96.61
21760;BME280;11041;50.854;20.580;2022-07-15T02:57:43;98408.06;;;16.22;96.43
21760;BME280;11041;50.854;20.580;2022-07-15T03:00:14;98410.66;;;16.14;96.47
21760;BME280;11041;50.854;20.580;2022-07-15T03:02:55;98395.22;;;15.97;96.55
21760;BME280;11041;50.854;20.580;2022-07-15T03:05:21;98420.22;;;16.01;96.72
21760;BME280;11041;50.854;20.580;2022-07-15T03:07:48;98410.78;;;15.86;96.91
21760;BME280;11041;50.854;20.580;2022-07-15T03:10:14;98410.25;;;15.81;97.08
21760;BME280;11041;50.854;20.580;2022-07-15T03:12:41;98421.69;;;15.79;96.66
21760;BME280;11041;50.854;20.580;2022-07-15T03:15:09;98437.84;;;15.77;96.55
21760;BME280;11041;50.854;20.580;2022-07-15T03:18:03;98421.63;;;15.63;96.55
21760;BME280;11041;50.854;20.580;2022-07-15T03:20:54;98428.16;;;15.55;96.51
21760;BME280;11041;50.854;20.580;2022-07-15T03:23:46;98447.53;;;15.55;96.57
21760;BME280;11041;50.854;20.580;2022-07-15T03:26:37;98435.03;;;15.45;96.50
21760;BME280;11041;50.854;20.580;2022-07-15T03:29:27;98424.50;;;15.35;96.32
21760;BME280;11041;50.854;20.580;2022-07-15T03:32:19;98419.44;;;15.25;95.33
21760;BME280;11041;50.854;20.580;2022-07-15T03:35:12;98425.69;;;15.22;95.07
21760;BME280;11041;50.854;20.580;2022-07-15T03:38:04;98431.75;;;15.11;93.95
21760;BME280;11041;50.854;20.580;2022-07-15T03:40:55;98437.16;;;15.08;94.19
21760;BME280;11041;50.854;20.580;2022-07-15T03:43:46;98423.00;;;14.81;93.88
21760;BME280;11041;50.854;20.580;2022-07-15T03:46:38;98453.63;;;14.88;93.98
21760;BME280;11041;50.854;20.580;2022-07-15T04:48:25;98547.69;;;14.27;91.55
21760;BME280;11041;50.854;20.580;2022-07-15T04:51:11;98562.31;;;14.40;91.91
21760;BME280;11041;50.854;20.580;2022-07-15T04:53:38;98564.84;;;14.45;91.86
21760;BME280;11041;50.854;20.580;2022-07-15T04:56:04;98573.75;;;14.51;92.12
21760;BME280;11041;50.854;20.580;2022-07-15T04:58:31;98557.03;;;14.47;91.71
21760;BME280;11041;50.854;20.580;2022-07-15T05:00:57;98568.22;;;14.51;90.53
21760;BME280;11041;50.854;20.580;2022-07-15T05:03:24;98582.72;;;14.60;91.01
21760;BME280;11041;50.854;20.580;2022-07-15T05:05:50;98565.09;;;14.52;90.36
21760;BME280;11041;50.854;20.580;2022-07-15T05:08:17;98601.66;;;14.70;89.76
21760;BME280;11041;50.854;20.580;2022-07-15T05:10:43;98577.34;;;14.63;90.11
21760;BME280;11041;50.854;20.580;2022-07-15T05:13:10;98585.63;;;14.63;90.16
21760;BME280;11041;50.854;20.580;2022-07-15T05:15:36;98580.66;;;14.69;90.15
21760;BME280;11041;50.854;20.580;2022-07-15T05:18:03;98595.09;;;14.75;89.27
21760;BME280;11041;50.854;20.580;2022-07-15T05:20:30;98602.91;;;14.85;88.62
21760;BME280;11041;50.854;20.580;2022-07-15T05:22:56;98607.41;;;14.89;89.13
21760;BME280;11041;50.854;20.580;2022-07-15T05:25:23;98602.66;;;14.90;88.50
21760;BME280;11041;50.854;20.580;2022-07-15T05:27:49;98622.97;;;14.94;88.17
21760;BME280;11041;50.854;20.580;2022-07-15T05:30:18;98619.41;;;14.94;87.83
21760;BME280;11041;50.854;20.580;2022-07-15T05:32:44;98610.97;;;14.90;87.68
21760;BME280;11041;50.854;20.580;2022-07-15T05:35:13;98637.25;;;14.96;86.99
21760;BME280;11041;50.854;20.580;2022-07-15T05:37:44;98633.78;;;14.99;87.10
21760;BME280;11041;50.854;20.580;2022-07-15T05:40:12;98601.41;;;14.87;87.40
21760;BME280;11041;50.854;20.580;2022-07-15T05:42:39;98611.19;;;14.97;86.88
21760;BME280;11041;50.854;20.580;2022-07-15T05:45:08;98622.25;;;15.09;86.40
21760;BME280;11041;50.854;20.580;2022-07-15T05:47:35;98625.13;;;15.13;84.89
21760;BME280;11041;50.854;20.580;2022-07-15T05:50:02;98623.25;;;15.17;85.59
21760;BME280;11041;50.854;20.580;2022-07-15T05:52:29;98632.16;;;15.23;84.88
21760;BME280;11041;50.854;20.580;2022-07-15T05:54:56;98642.25;;;15.31;85.26
21760;BME280;11041;50.854;20.580;2022-07-15T05:57:22;98643.53;;;15.33;84.81
21760;BME280;11041;50.854;20.580;2022-07-15T05:59:49;98629.69;;;15.33;84.38
21760;BME280;11041;50.854;20.580;2022-07-15T06:02:16;98645.97;;;15.35;84.20
21760;BME280;11041;50.854;20.580;2022-07-15T06:04:42;98645.97;;;15.35;84.43
21760;BME280;11041;50.854;20.580;2022-07-15T06:07:09;98663.88;;;15.53;84.87
21760;BME280;11041;50.854;20.580;2022-07-15T06:09:36;98659.53;;;15.52;86.26
21760;BME280;11041;50.854;20.580;2022-07-15T06:12:02;98654.31;;;15.51;85.46
21760;BME280;11041;50.854;20.580;2022-07-15T06:14:29;98654.44;;;15.54;85.08
21760;BME280;11041;50.854;20.580;2022-07-15T06:16:55;98657.31;;;15.58;85.00
21760;BME280;11041;50.854;20.580;2022-07-15T06:19:22;98669.19;;;15.71;84.43
21760;BME280;11041;50.854;20.580;2022-07-15T06:21:48;98675.53;;;15.71;83.59
21760;BME280;11041;50.854;20.580;2022-07-15T06:24:15;98671.13;;;15.70;83.26
21760;BME280;11041;50.854;20.580;2022-07-15T06:26:42;98657.41;;;15.74;83.44
21760;BME280;11041;50.854;20.580;2022-07-15T06:29:08;98672.00;;;15.87;84.30
21760;BME280;11041;50.854;20.580;2022-07-15T06:31:35;98676.16;;;15.93;82.11
21760;BME280;11041;50.854;20.580;2022-07-15T06:34:01;98664.03;;;15.97;83.13
21760;BME280;11041;50.854;20.580;2022-07-15T06:36:28;98671.00;;;16.07;84.21
21760;BME280;11041;50.854;20.580;2022-07-15T06:38:55;98671.66;;;16.16;80.39
21760;BME280;11041;50.854;20.580;2022-07-15T06:41:21;98692.16;;;16.28;80.37
21760;BME280;11041;50.854;20.580;2022-07-15T06:43:48;98686.00;;;16.34;80.86
21760;BME280;11041;50.854;20.580;2022-07-15T06:46:15;98670.44;;;16.30;79.50
21760;BME280;11041;50.854;20.580;2022-07-15T06:48:41;98682.25;;;16.43;77.98
21760;BME280;11041;50.854;20.580;2022-07-15T06:51:09;98689.69;;;16.54;78.06
21760;BME280;11041;50.854;20.580;2022-07-15T06:53:35;98681.81;;;16.56;76.30
21760;BME280;11041;50.854;20.580;2022-07-15T06:56:03;98704.38;;;16.71;75.51
21760;BME280;11041;50.854;20.580;2022-07-15T06:58:29;98696.44;;;16.69;74.47
21760;BME280;11041;50.854;20.580;2022-07-15T07:00:56;98702.97;;;16.77;76.22
21760;BME280;11041;50.854;20.580;2022-07-15T07:03:23;98712.75;;;16.87;72.77
21760;BME280;11041;50.854;20.580;2022-07-15T07:05:49;98702.63;;;16.78;72.15
21760;BME280;11041;50.854;20.580;2022-07-15T07:08:16;98711.75;;;16.95;72.32
21760;BME280;11041;50.854;20.580;2022-07-15T07:10:42;98708.06;;;16.91;70.36
21760;BME280;11041;50.854;20.580;2022-07-15T07:13:09;98721.16;;;17.06;70.64
21760;BME280;11041;50.854;20.580;2022-07-15T07:15:36;98691.97;;;16.96;68.87
21760;BME280;11041;50.854;20.580;2022-07-15T07:18:02;98715.06;;;17.16;68.54
21760;BME280;11041;50.854;20.580;2022-07-15T07:20:30;98722.41;;;17.24;66.48
21760;BME280;11041;50.854;20.580;2022-07-15T07:22:56;98727.13;;;17.24;67.88
21760;BME280;11041;50.854;20.580;2022-07-15T07:25:24;98736.09;;;17.33;66.81
21760;BME280;11041;50.854;20.580;2022-07-15T07:27:50;98732.22;;;17.38;66.72
21760;BME280;11041;50.854;20.580;2022-07-15T07:30:17;98735.97;;;17.45;63.79
21760;BME280;11041;50.854;20.580;2022-07-15T07:32:44;98747.34;;;17.56;64.50
21760;BME280;11041;50.854;20.580;2022-07-15T07:35:10;98722.09;;;17.45;62.07
21760;BME280;11041;50.854;20.580;2022-07-15T07:37:38;98734.31;;;17.60;62.77
21760;BME280;11041;50.854;20.580;2022-07-15T07:40:08;98744.00;;;17.66;59.88
21760;BME280;11041;50.854;20.580;2022-07-15T07:42:35;98757.75;;;17.79;58.98
21760;BME280;11041;50.854;20.580;2022-07-15T07:45:02;98725.06;;;17.72;59.40
21760;BME280;11041;50.854;20.580;2022-07-15T07:47:30;98749.25;;;17.87;60.78
21760;BME280;11041;50.854;20.580;2022-07-15T07:50:05;98746.31;;;17.80;60.08
21760;BME280;11041;50.854;20.580;2022-07-15T07:52:31;98771.34;;;17.80;61.94
21760;BME280;11041;50.854;20.580;2022-07-15T07:54:58;98765.88;;;17.68;62.33
21760;BME280;11041;50.854;20.580;2022-07-15T07:57:25;98761.53;;;17.51;63.64
21760;BME280;11041;50.854;20.580;2022-07-15T07:59:51;98773.34;;;17.48;64.38
21760;BME280;11041;50.854;20.580;2022-07-15T08:02:18;98760.72;;;17.35;65.41
21760;BME280;11041;50.854;20.580;2022-07-15T08:04:45;98766.53;;;17.45;65.87
21760;BME280;11041;50.854;20.580;2022-07-15T08:07:12;98766.97;;;17.48;64.30
21760;BME280;11041;50.854;20.580;2022-07-15T08:09:39;98762.84;;;17.57;59.77
21760;BME280;11041;50.854;20.580;2022-07-15T08:12:05;98771.94;;;17.74;61.59
21760;BME280;11041;50.854;20.580;2022-07-15T08:14:32;98763.25;;;17.75;61.49
21760;BME280;11041;50.854;20.580;2022-07-15T08:16:59;98780.94;;;17.83;61.54
21760;BME280;11041;50.854;20.580;2022-07-15T08:19:25;98768.56;;;17.80;64.10
21760;BME280;11041;50.854;20.580;2022-07-15T08:21:53;98786.34;;;17.95;63.13
21760;BME280;11041;50.854;20.580;2022-07-15T08:24:20;98788.34;;;17.95;60.98
21760;BME280;11041;50.854;20.580;2022-07-15T08:26:46;98788.78;;;17.97;60.44
21760;BME280;11041;50.854;20.580;2022-07-15T08:29:13;98765.22;;;17.91;62.45
21760;BME280;11041;50.854;20.580;2022-07-15T08:31:39;98785.56;;;18.14;61.14
21760;BME280;11041;50.854;20.580;2022-07-15T08:34:06;98789.75;;;18.24;60.61
21760;BME280;11041;50.854;20.580;2022-07-15T08:36:34;98753.75;;;18.12;59.49
21760;BME280;11041;50.854;20.580;2022-07-15T08:39:00;98793.03;;;18.10;59.39
21760;BME280;11041;50.854;20.580;2022-07-15T08:41:27;98795.59;;;17.99;60.89
21760;BME280;11041;50.854;20.580;2022-07-15T08:43:54;98793.75;;;18.07;61.16
21760;BME280;11041;50.854;20.580;2022-07-15T08:46:23;98775.59;;;18.13;62.05
21760;BME280;11041;50.854;20.580;2022-07-15T08:49:05;98781.09;;;18.29;62.48
21760;BME280;11041;50.854;20.580;2022-07-15T08:51:37;98796.47;;;18.42;61.75
21760;BME280;11041;50.854;20.580;2022-07-15T08:54:08;98801.16;;;18.38;61.89
21760;BME280;11041;50.854;20.580;2022-07-15T08:56:35;98791.88;;;18.50;61.41
21760;BME280;11041;50.854;20.580;2022-07-15T08:59:05;98796.75;;;18.57;59.35
21760;BME280;11041;50.854;20.580;2022-07-15T09:01:39;98799.69;;;18.64;58.67
21760;BME280;11041;50.854;20.580;2022-07-15T09:04:06;98794.84;;;18.61;57.97
21760;BME280;11041;50.854;20.580;2022-07-15T09:06:42;98796.59;;;18.49;58.36
21760;BME280;11041;50.854;20.580;2022-07-15T09:09:25;98780.66;;;18.46;59.81
21760;BME280;11041;50.854;20.580;2022-07-15T09:14:29;98800.56;;;18.48;58.69
21760;BME280;11041;50.854;20.580;2022-07-15T09:17:18;98794.72;;;18.53;58.21
21760;BME280;11041;50.854;20.580;2022-07-15T09:20:06;98790.34;;;18.52;59.72
21760;BME280;11041;50.854;20.580;2022-07-15T09:22:49;98811.19;;;18.62;57.52
21760;BME280;11041;50.854;20.580;2022-07-15T09:25:16;98799.69;;;18.64;57.18
21760;BME280;11041;50.854;20.580;2022-07-15T09:27:44;98808.56;;;18.69;56.11
21760;BME280;11041;50.854;20.580;2022-07-15T09:30:21;98821.94;;;18.64;54.95
21760;BME280;11041;50.854;20.580;2022-07-15T09:33:19;98806.88;;;18.45;56.07
21760;BME280;11041;50.854;20.580;2022-07-15T09:36:23;98802.19;;;18.49;55.69
21760;BME280;11041;50.854;20.580;2022-07-15T09:39:04;98779.06;;;18.45;57.76
21760;BME280;11041;50.854;20.580;2022-07-15T09:41:45;98795.50;;;18.73;56.95
21760;BME280;11041;50.854;20.580;2022-07-15T09:44:19;98795.94;;;18.76;55.46
21760;BME280;11041;50.854;20.580;2022-07-15T09:46:52;98798.06;;;18.82;54.46
21760;BME280;11041;50.854;20.580;2022-07-15T09:52:08;98802.41;;;18.60;53.86
21760;BME280;11041;50.854;20.580;2022-07-15T09:54:46;98820.19;;;18.56;54.85
21760;BME280;11041;50.854;20.580;2022-07-15T09:57:18;98803.06;;;18.53;55.89
21760;BME280;11041;50.854;20.580;2022-07-15T09:59:48;98815.06;;;18.58;54.98
21760;BME280;11041;50.854;20.580;2022-07-15T10:02:17;98800.56;;;18.48;54.97
21760;BME280;11041;50.854;20.580;2022-07-15T10:04:43;98810.16;;;18.51;54.69
21760;BME280;11041;50.854;20.580;2022-07-15T10:07:13;98789.16;;;18.34;53.25
21760;BME280;11041;50.854;20.580;2022-07-15T10:09:41;98797.94;;;18.36;54.11
21760;BME280;11041;50.854;20.580;2022-07-15T10:12:30;98808.03;;;18.44;53.77
21760;BME280;11041;50.854;20.580;2022-07-15T10:15:29;98804.53;;;18.47;54.40
21760;BME280;11041;50.854;20.580;2022-07-15T10:21:16;98793.31;;;18.63;53.47
21760;BME280;11041;50.854;20.580;2022-07-15T10:29:56;98802.19;;;18.69;48.88
21760;BME280;11041;50.854;20.580;2022-07-15T10:32:24;98797.13;;;18.74;50.61
21760;BME280;11041;50.854;20.580;2022-07-15T10:34:50;98796.78;;;18.76;48.53
21760;BME280;11041;50.854;20.580;2022-07-15T10:37:17;98796.22;;;18.70;47.69
21760;BME280;11041;50.854;20.580;2022-07-15T10:42:19;98810.84;;;18.83;48.96
21760;BME280;11041;50.854;20.580;2022-07-15T10:45:04;98807.00;;;18.91;49.46
21760;BME280;11041;50.854;20.580;2022-07-15T10:47:33;98798.44;;;18.81;49.19
21760;BME280;11041;50.854;20.580;2022-07-15T10:50:01;98804.84;;;18.81;49.03
21760;BME280;11041;50.854;20.580;2022-07-15T10:53:20;98805.38;;;18.90;52.68
21760;BME280;11041;50.854;20.580;2022-07-15T10:55:47;98815.19;;;19.04;50.03
21760;BME280;11041;50.854;20.580;2022-07-15T10:58:16;98803.94;;;19.20;50.13
21760;BME280;11041;50.854;20.580;2022-07-15T11:00:44;98808.19;;;19.36;50.08
21760;BME280;11041;50.854;20.580;2022-07-15T11:03:18;98819.47;;;19.44;46.75
21760;BME280;11041;50.854;20.580;2022-07-15T11:13:47;98774.16;;;19.50;46.58
21760;BME280;11041;50.854;20.580;2022-07-15T11:16:19;98798.47;;;19.76;46.85
21760;BME280;11041;50.854;20.580;2022-07-15T11:18:56;98801.47;;;19.91;46.12
21760;BME280;11041;50.854;20.580;2022-07-15T11:21:26;98796.28;;;19.89;46.67
21760;BME280;11041;50.854;20.580;2022-07-15T11:23:52;98793.00;;;19.84;45.30
21760;BME280;11041;50.854;20.580;2022-07-15T11:26:22;98812.19;;;19.89;46.58
21760;BME280;11041;50.854;20.580;2022-07-15T11:28:54;98811.78;;;19.87;43.44
21760;BME280;11041;50.854;20.580;2022-07-15T11:31:23;98795.00;;;19.83;45.84
21760;BME280;11041;50.854;20.580;2022-07-15T11:33:54;98803.84;;;19.89;46.81
21760;BME280;11041;50.854;20.580;2022-07-15T11:36:22;98809.69;;;20.07;46.60
21760;BME280;11041;50.854;20.580;2022-07-15T11:38:51;98827.84;;;20.24;45.69
21760;BME280;11041;50.854;20.580;2022-07-15T11:41:20;98809.13;;;20.24;43.87
21760;BME280;11041;50.854;20.580;2022-07-15T11:44:11;98804.81;;;20.30;43.72
21760;BME280;11041;50.854;20.580;2022-07-15T11:46:58;98810.97;;;20.47;44.61
21760;BME280;11041;50.854;20.580;2022-07-15T11:49:38;98803.53;;;20.54;45.00
21760;BME280;11041;50.854;20.580;2022-07-15T11:52:10;98809.53;;;20.56;43.63
21760;BME280;11041;50.854;20.580;2022-07-15T11:54:39;98816.06;;;20.68;46.21
21760;BME280;11041;50.854;20.580;2022-07-15T11:57:10;98824.78;;;21.00;44.14
21760;BME280;11041;50.854;20.580;2022-07-15T11:59:39;98807.91;;;20.89;44.19
21760;BME280;11041;50.854;20.580;2022-07-15T12:02:12;98836.50;;;21.13;43.12
21760;BME280;11041;50.854;20.580;2022-07-15T12:04:40;98823.91;;;20.92;43.99
21760;BME280;11041;50.854;20.580;2022-07-15T12:07:10;98817.06;;;20.86;45.70
21760;BME280;11041;50.854;20.580;2022-07-15T12:09:41;98831.81;;;20.87;43.43
21760;BME280;11041;50.854;20.580;2022-07-15T12:12:09;98821.72;;;20.75;44.02
21760;BME280;11041;50.854;20.580;2022-07-15T12:14:36;98837.38;;;20.83;43.34
21760;BME280;11041;50.854;20.580;2022-07-15T12:17:04;98833.47;;;20.91;45.58
21760;BME280;11041;50.854;20.580;2022-07-15T12:19:35;98833.97;;;21.00;42.01
21760;BME280;11041;50.854;20.580;2022-07-15T12:22:08;98827.66;;;21.07;40.69
21760;BME280;11041;50.854;20.580;2022-07-15T12:24:49;98832.22;;;21.26;41.26
21760;BME280;11041;50.854;20.580;2022-07-15T12:27:34;98841.38;;;21.23;41.65
21760;BME280;11041;50.854;20.580;2022-07-15T12:30:08;98842.94;;;21.17;41.27
21760;BME280;11041;50.854;20.580;2022-07-15T12:32:35;98841.72;;;21.18;41.26
21760;BME280;11041;50.854;20.580;2022-07-15T12:35:05;98847.63;;;21.09;40.27
21760;BME280;11041;50.854;20.580;2022-07-15T12:40:22;98840.72;;;20.99;41.06
21760;BME280;11041;50.854;20.580;2022-07-15T12:42:53;98813.22;;;21.01;42.30
21760;BME280;11041;50.854;20.580;2022-07-15T12:45:24;98843.13;;;21.38;39.55
21760;BME280;11041;50.854;20.580;2022-07-15T12:48:13;98831.44;;;21.70;40.81
21760;BME280;11041;50.854;20.580;2022-07-15T12:53:17;98842.88;;;22.06;36.49
21760;BME280;11041;50.854;20.580;2022-07-15T12:55:48;98829.25;;;22.01;36.15
21760;BME280;11041;50.854;20.580;2022-07-15T12:58:22;98823.16;;;21.88;35.80
21760;BME280;11041;50.854;20.580;2022-07-15T13:00:50;98833.19;;;21.89;40.47
21760;BME280;11041;50.854;20.580;2022-07-15T13:03:19;98840.09;;;22.09;37.62
21760;BME280;11041;50.854;20.580;2022-07-15T13:05:53;98821.66;;;22.05;38.02
21760;BME280;11041;50.854;20.580;2022-07-15T13:08:34;98849.13;;;21.88;37.07
21760;BME280;11041;50.854;20.580;2022-07-15T13:11:05;98836.38;;;21.39;38.16
21760;BME280;11041;50.854;20.580;2022-07-15T13:13:37;98822.94;;;21.15;39.82
21760;BME280;11041;50.854;20.580;2022-07-15T13:16:05;98834.44;;;21.47;40.23
21760;BME280;11041;50.854;20.580;2022-07-15T13:18:33;98843.41;;;21.70;39.51
21760;BME280;11041;50.854;20.580;2022-07-15T13:21:00;98848.69;;;21.83;39.02
21760;BME280;11041;50.854;20.580;2022-07-15T13:23:27;98859.28;;;22.11;38.19
21760;BME280;11041;50.854;20.580;2022-07-15T13:25:54;98851.44;;;22.31;37.97
21760;BME280;11041;50.854;20.580;2022-07-15T13:28:22;98849.91;;;22.48;36.78
21760;BME280;11041;50.854;20.580;2022-07-15T13:30:49;98843.94;;;22.53;38.62
21760;BME280;11041;50.854;20.580;2022-07-15T13:33:16;98858.09;;;22.92;36.67
21760;BME280;11041;50.854;20.580;2022-07-15T13:35:43;98842.56;;;23.02;36.74
21760;BME280;11041;50.854;20.580;2022-07-15T13:38:09;98853.81;;;23.27;34.52
21760;BME280;11041;50.854;20.580;2022-07-15T13:40:36;98840.16;;;23.04;35.07
21760;BME280;11041;50.854;20.580;2022-07-15T13:43:02;98848.13;;;22.99;34.52
21760;BME280;11041;50.854;20.580;2022-07-15T13:45:29;98848.16;;;23.06;35.04
21760;BME280;11041;50.854;20.580;2022-07-15T13:47:55;98864.91;;;22.95;34.39
21760;BME280;11041;50.854;20.580;2022-07-15T13:50:22;98861.56;;;22.61;34.33
21760;BME280;11041;50.854;20.580;2022-07-15T13:53:07;98869.59;;;22.59;35.36
21760;BME280;11041;50.854;20.580;2022-07-15T13:55:34;98840.03;;;22.68;36.57
21760;BME280;11041;50.854;20.580;2022-07-15T13:58:00;98869.78;;;23.12;35.28
21760;BME280;11041;50.854;20.580;2022-07-15T14:00:27;98852.63;;;23.39;34.09
21760;BME280;11041;50.854;20.580;2022-07-15T14:02:55;98847.41;;;23.34;33.58
21760;BME280;11041;50.854;20.580;2022-07-15T14:05:22;98842.97;;;23.33;34.50
21760;BME280;11041;50.854;20.580;2022-07-15T14:07:49;98846.16;;;23.13;34.18
21760;BME280;11041;50.854;20.580;2022-07-15T14:10:16;98854.47;;;22.81;34.67
21760;BME280;11041;50.854;20.580;2022-07-15T14:12:43;98848.28;;;22.40;35.89
21760;BME280;11041;50.854;20.580;2022-07-15T14:15:10;98851.66;;;22.08;36.84
21760;BME280;11041;50.854;20.580;2022-07-15T14:17:37;98864.31;;;21.87;38.18
21760;BME280;11041;50.854;20.580;2022-07-15T14:20:05;98854.09;;;21.58;39.81
21760;BME280;11041;50.854;20.580;2022-07-15T14:22:31;98853.97;;;21.95;38.59
21760;BME280;11041;50.854;20.580;2022-07-15T14:24:59;98863.91;;;21.85;37.71
21760;BME280;11041;50.854;20.580;2022-07-15T14:27:26;98865.81;;;21.74;38.07
21760;BME280;11041;50.854;20.580;2022-07-15T14:29:53;98860.38;;;21.44;37.48
21760;BME280;11041;50.854;20.580;2022-07-15T14:32:21;98868.72;;;21.40;38.84
21760;BME280;11041;50.854;20.580;2022-07-15T14:34:47;98861.88;;;21.38;39.38
21760;BME280;11041;50.854;20.580;2022-07-15T14:37:13;98877.00;;;21.74;39.69